Time;durP1;ratioP1;P1;durP2;ratioP2;P2;SDS_P1;SDS_P2;PMS_P1;PMS_P2;Temp;Humidity;BMP_temperature;BMP_pressure;BME280_temperature;BME280_humidity;BME280_pressure;Samples;Min_cycle;Max_cycle;Signal;HPM_P1;HPM_P2
2023/10/28 00:02:02;;;;;;;0.73;0.60;;;;;;;14.48;58.13;98235.97;4496106;31;32534;-69
2023/10/28 00:04:31;;;;;;;0.57;0.57;;;;;;;14.38;58.84;98240.72;4498197;31;33229;-69
2023/10/28 00:06:59;;;;;;;0.65;0.47;;;;;;;14.68;57.53;98236.41;4500873;31;34846;-69
2023/10/28 00:09:27;;;;;;;2.80;1.25;;;;;;;14.27;58.49;98238.44;4503459;31;33269;-68
2023/10/28 00:11:55;;;;;;;0.62;0.50;;;;;;;14.42;58.40;98242.91;4489896;31;33409;-72
2023/10/28 00:14:23;;;;;;;0.35;0.32;;;;;;;14.35;58.80;98241.06;4496080;31;33434;-73
2023/10/28 00:16:50;;;;;;;0.22;0.22;;;;;;;14.50;58.54;98250.09;4497747;31;34944;-73
2023/10/28 00:19:19;;;;;;;0.80;0.55;;;;;;;14.86;57.86;98260.34;4510436;31;33599;-74
2023/10/28 00:21:47;;;;;;;0.43;0.40;;;;;;;14.70;58.28;98255.91;4504275;31;33643;-74
2023/10/28 00:24:14;;;;;;;0.65;0.32;;;;;;;15.06;57.10;98268.81;4500557;31;33724;-73
2023/10/28 00:26:42;;;;;;;1.98;0.62;;;;;;;14.90;57.32;98259.84;4511621;31;35026;-73
2023/10/28 00:29:11;;;;;;;1.25;0.62;;;;;;;14.84;57.84;98254.31;4502152;31;34532;-73
2023/10/28 00:31:39;;;;;;;0.73;0.73;;;;;;;14.62;57.93;98246.03;4492893;31;34388;-73
2023/10/28 00:34:08;;;;;;;1.17;0.40;;;;;;;14.86;57.29;98254.97;4498456;31;34064;-73
2023/10/28 00:36:36;;;;;;;0.47;0.45;;;;;;;15.28;56.36;98251.81;4497041;31;33928;-69
2023/10/28 00:39:03;;;;;;;1.05;1.05;;;;;;;15.45;56.13;98255.19;4489107;31;34462;-69
2023/10/28 00:41:32;;;;;;;0.60;0.45;;;;;;;15.65;55.04;98249.28;4494442;31;34035;-69
2023/10/28 00:43:59;;;;;;;0.20;0.20;;;;;;;15.13;56.40;98246.34;4499024;31;33772;-68
2023/10/28 00:46:28;;;;;;;0.32;0.30;;;;;;;14.94;56.80;98260.31;4501079;31;33705;-68
2023/10/28 00:48:56;;;;;;;1.20;0.55;;;;;;;14.81;57.08;98250.13;4494188;31;34604;-68
2023/10/28 00:51:23;;;;;;;1.12;0.55;;;;;;;14.97;56.89;98259.94;4497648;31;35738;-68
2023/10/28 00:53:51;;;;;;;0.40;0.40;;;;;;;15.34;55.87;98272.66;4498870;31;34452;-68
2023/10/28 00:56:19;;;;;;;1.17;0.43;;;;;;;15.46;55.48;98273.03;4497291;31;33753;-68
2023/10/28 00:58:48;;;;;;;0.52;0.35;;;;;;;15.49;54.98;98277.25;4494461;31;34779;-68
2023/10/28 01:01:16;;;;;;;1.02;0.73;;;;;;;15.29;55.55;98277.75;4483164;31;33019;-69
2023/10/28 01:03:44;;;;;;;1.52;0.80;;;;;;;15.49;54.97;98280.78;4487675;31;34481;-69
2023/10/28 01:06:12;;;;;;;4.03;0.77;;;;;;;15.55;54.85;98285.44;4484875;31;33795;-69
2023/10/28 01:08:40;;;;;;;0.40;0.40;;;;;;;15.33;55.18;98289.84;4483251;31;33290;-68
2023/10/28 01:11:07;;;;;;;0.45;0.45;;;;;;;15.46;55.35;98285.69;4488510;31;34257;-68
2023/10/28 01:13:35;;;;;;;3.42;0.80;;;;;;;15.29;55.15;98282.28;4487670;31;33658;-69
2023/10/28 01:16:04;;;;;;;2.08;0.65;;;;;;;15.59;54.27;98281.34;4492905;31;35004;-69
2023/10/28 01:18:32;;;;;;;0.30;0.30;;;;;;;15.37;54.65;98277.66;4485121;31;35036;-69
2023/10/28 01:21:18;;;;;;;1.25;0.65;;;;;;;15.52;54.71;98282.28;4487739;31;34472;-69
2023/10/28 01:23:45;;;;;;;0.28;0.28;;;;;;;15.19;55.45;98287.94;4482769;31;34455;-69
2023/10/28 01:26:13;;;;;;;0.50;0.50;;;;;;;15.44;54.67;98285.87;4489834;31;33926;-67
2023/10/28 01:28:40;;;;;;;0.80;0.40;;;;;;;15.23;55.75;98286.53;4490974;31;33432;-67
2023/10/28 01:31:08;;;;;;;0.35;0.35;;;;;;;15.47;54.70;98288.19;4494382;31;33720;-68
2023/10/28 01:33:36;;;;;;;0.30;0.30;;;;;;;15.43;54.83;98294.97;4491417;31;33893;-69
2023/10/28 01:36:04;;;;;;;0.47;0.47;;;;;;;15.49;54.72;98280.78;4490792;31;35018;-68
2023/10/28 01:38:32;;;;;;;0.40;0.40;;;;;;;15.78;54.22;98290.81;4481876;31;33351;-69
2023/10/28 01:41:00;;;;;;;0.62;0.30;;;;;;;15.92;53.55;98285.63;4490512;31;34240;-69
2023/10/28 01:43:29;;;;;;;1.12;0.57;;;;;;;15.98;53.46;98295.69;4483708;31;34371;-69
2023/10/28 01:45:57;;;;;;;0.43;0.40;;;;;;;16.06;53.32;98296.44;4484833;31;34042;-69
2023/10/28 01:48:24;;;;;;;0.93;0.57;;;;;;;15.96;53.72;98298.59;4494224;31;33651;-69
2023/10/28 01:50:52;;;;;;;1.27;0.77;;;;;;;15.94;53.74;98302.47;4489824;31;34072;-69
2023/10/28 01:53:20;;;;;;;1.08;0.60;;;;;;;16.04;53.60;98306.56;4485522;31;34592;-69
2023/10/28 01:55:48;;;;;;;0.88;0.73;;;;;;;16.07;53.51;98303.50;4496509;31;35884;-69
2023/10/28 01:58:15;;;;;;;2.30;1.08;;;;;;;16.04;53.64;98303.88;4492415;31;34458;-69
2023/10/28 02:00:43;;;;;;;1.00;0.55;;;;;;;15.93;53.99;98309.75;4497557;31;34343;-69
2023/10/28 02:03:11;;;;;;;2.12;0.65;;;;;;;15.93;53.93;98319.72;4481866;31;35324;-70
2023/10/28 02:05:39;;;;;;;2.10;0.68;;;;;;;15.78;54.30;98330.44;4493843;31;34940;-69
2023/10/28 02:08:06;;;;;;;0.47;0.47;;;;;;;15.88;54.03;98336.44;4490207;31;33775;-68
2023/10/28 02:10:34;;;;;;;1.45;0.65;;;;;;;15.86;54.34;98333.09;4486728;31;33052;-68
2023/10/28 02:13:02;;;;;;;1.27;0.52;;;;;;;15.61;54.81;98325.16;4491068;31;34101;-68
2023/10/28 02:15:30;;;;;;;2.53;1.15;;;;;;;15.48;55.23;98330.34;4486894;31;35295;-68
2023/10/28 02:17:58;;;;;;;4.72;0.60;;;;;;;15.49;55.25;98341.97;4492048;31;34226;-68
2023/10/28 02:20:28;;;;;;;1.30;0.95;;;;;;;15.49;55.32;98342.78;4473201;31;33215;-67
2023/10/28 02:22:56;;;;;;;0.30;0.30;;;;;;;15.41;55.50;98340.16;4478882;31;33464;-69
2023/10/28 02:25:23;;;;;;;3.75;0.80;;;;;;;15.37;55.73;98342.34;4475796;31;33839;-69
2023/10/28 02:27:51;;;;;;;1.37;0.85;;;;;;;15.19;56.39;98349.91;4484732;31;33482;-69
2023/10/28 02:30:19;;;;;;;1.83;0.65;;;;;;;14.90;57.61;98347.91;4487317;31;33550;-69
2023/10/28 02:32:47;;;;;;;0.62;0.62;;;;;;;15.17;56.37;98348.41;4487868;31;33648;-69
2023/10/28 02:35:16;;;;;;;0.52;0.50;;;;;;;14.84;57.55;98349.44;4476141;31;34884;-69
2023/10/28 02:37:44;;;;;;;1.00;0.45;;;;;;;15.19;56.70;98357.16;4490688;31;34750;-68
2023/10/28 02:40:12;;;;;;;0.52;0.35;;;;;;;15.28;56.68;98342.59;4470649;31;32947;-68
2023/10/28 02:42:41;;;;;;;0.40;0.40;;;;;;;15.35;56.35;98341.72;4481147;31;34973;-68
2023/10/28 02:45:09;;;;;;;0.55;0.52;;;;;;;15.10;56.90;98340.19;4485955;31;34787;-68
2023/10/28 02:47:37;;;;;;;0.32;0.32;;;;;;;15.18;56.70;98333.91;4485799;31;33827;-68
2023/10/28 02:50:05;;;;;;;0.98;0.68;;;;;;;15.03;57.41;98328.47;4488921;31;34062;-68
2023/10/28 02:52:33;;;;;;;0.52;0.47;;;;;;;15.23;56.81;98329.66;4494886;31;35185;-68
2023/10/28 02:55:02;;;;;;;1.08;1.05;;;;;;;15.31;57.00;98332.31;4492934;31;34964;-69
2023/10/28 02:57:30;;;;;;;0.47;0.47;;;;;;;15.36;56.52;98326.38;4485405;31;33908;-69
2023/10/28 02:59:58;;;;;;;0.85;0.68;;;;;;;15.41;56.48;98331.22;4491400;31;33439;-68
2023/10/28 03:02:25;;;;;;;0.50;0.50;;;;;;;15.40;56.51;98337.63;4492419;31;34954;-69
2023/10/28 03:04:55;;;;;;;0.60;0.60;;;;;;;15.30;56.49;98337.88;4470336;31;33806;-68
2023/10/28 03:07:23;;;;;;;1.00;0.57;;;;;;;15.36;56.14;98332.59;4478342;31;33361;-68
2023/10/28 03:09:51;;;;;;;5.00;0.82;;;;;;;15.38;56.33;98329.75;4489758;31;33085;-68
2023/10/28 03:12:18;;;;;;;1.65;0.93;;;;;;;15.35;56.29;98333.63;4489431;31;34250;-68
2023/10/28 03:14:46;;;;;;;1.08;0.70;;;;;;;15.27;56.36;98330.16;4480731;31;33494;-68
2023/10/28 03:17:14;;;;;;;1.12;0.73;;;;;;;15.26;56.77;98334.69;4485510;31;33461;-68
2023/10/28 03:19:41;;;;;;;1.77;1.02;;;;;;;15.12;57.00;98341.72;4494680;31;33796;-68
2023/10/28 03:22:09;;;;;;;0.43;0.43;;;;;;;14.79;57.64;98342.88;4475938;31;33569;-68
2023/10/28 03:24:37;;;;;;;0.50;0.50;;;;;;;14.09;60.01;98343.59;4477308;31;35046;-68
2023/10/28 03:27:04;;;;;;;0.90;0.62;;;;;;;14.40;59.17;98352.59;4493053;31;33481;-68
2023/10/28 03:29:33;;;;;;;7.55;1.10;;;;;;;14.72;58.07;98348.13;4491702;31;32046;-68
2023/10/28 03:32:01;;;;;;;0.30;0.30;;;;;;;14.65;58.38;98356.06;4486302;31;33872;-68
2023/10/28 03:34:28;;;;;;;0.80;0.52;;;;;;;14.77;58.16;98353.00;4489911;31;34797;-68
2023/10/28 03:36:57;;;;;;;1.75;0.55;;;;;;;14.75;57.91;98355.88;4485878;31;33715;-69
2023/10/28 03:39:25;;;;;;;4.47;1.52;;;;;;;14.78;57.94;98357.38;4487211;31;32952;-68
2023/10/28 03:41:53;;;;;;;0.75;0.57;;;;;;;14.73;58.49;98359.75;4482676;31;33917;-68
2023/10/28 03:44:21;;;;;;;0.50;0.40;;;;;;;14.48;59.03;98362.50;4487755;31;34054;-68
2023/10/28 03:46:49;;;;;;;1.50;0.62;;;;;;;14.02;59.91;98370.31;4493872;31;33485;-68
2023/10/28 03:49:17;;;;;;;0.75;0.52;;;;;;;14.42;58.80;98368.59;4483291;31;34080;-69
2023/10/28 03:51:44;;;;;;;5.78;1.50;;;;;;;14.04;59.81;98368.31;4483785;31;33869;-69
2023/10/28 03:54:13;;;;;;;1.58;0.70;;;;;;;14.44;58.58;98374.62;4493818;31;34354;-68
2023/10/28 03:56:41;;;;;;;1.27;0.85;;;;;;;14.62;58.26;98377.97;4495287;31;33420;-68
2023/10/28 03:59:08;;;;;;;1.30;0.50;;;;;;;14.67;57.94;98364.00;4479362;31;34123;-68
2023/10/28 04:01:36;;;;;;;0.52;0.52;;;;;;;14.68;58.36;98373.75;4487044;31;33798;-67
2023/10/28 04:04:04;;;;;;;0.40;0.40;;;;;;;14.59;58.02;98383.69;4492612;31;32586;-67
2023/10/28 04:06:31;;;;;;;0.52;0.40;;;;;;;14.59;57.82;98381.00;4494250;31;34592;-67
2023/10/28 04:08:59;;;;;;;2.08;0.65;;;;;;;14.70;57.71;98376.25;4484459;31;34216;-67
2023/10/28 04:11:27;;;;;;;0.60;0.60;;;;;;;14.75;57.57;98373.88;4477143;31;34741;-67
2023/10/28 04:13:54;;;;;;;0.68;0.50;;;;;;;14.65;57.53;98374.94;4489690;31;33687;-67
2023/10/28 04:16:22;;;;;;;1.00;0.77;;;;;;;14.70;57.26;98373.56;4483057;32;34706;-68
2023/10/28 04:18:50;;;;;;;0.47;0.47;;;;;;;14.71;57.67;98367.19;4474111;31;33451;-67
2023/10/28 04:21:17;;;;;;;1.98;0.57;;;;;;;14.77;57.59;98375.41;4488825;31;33648;-68
2023/10/28 04:23:45;;;;;;;1.10;0.77;;;;;;;14.77;57.40;98380.78;4483920;31;35319;-67
2023/10/28 04:26:12;;;;;;;3.80;1.40;;;;;;;14.77;57.66;98386.16;4484436;31;33550;-67
2023/10/28 04:28:40;;;;;;;0.60;0.60;;;;;;;14.53;57.96;98379.00;4482456;31;33663;-67
2023/10/28 04:31:08;;;;;;;0.32;0.32;;;;;;;14.76;57.47;98387.16;4491704;31;33831;-68
2023/10/28 04:33:35;;;;;;;0.30;0.30;;;;;;;14.56;57.54;98386.72;4489972;31;34958;-67
2023/10/28 04:36:03;;;;;;;0.40;0.40;;;;;;;14.41;57.75;98391.09;4498266;31;34840;-67
2023/10/28 04:38:31;;;;;;;0.40;0.40;;;;;;;14.43;58.20;98386.41;4475593;31;32932;-66
2023/10/28 04:40:59;;;;;;;0.90;0.52;;;;;;;14.54;57.54;98394.16;4477715;31;34602;-67
2023/10/28 04:43:26;;;;;;;0.95;0.68;;;;;;;14.37;57.58;98396.00;4494814;31;33857;-67
2023/10/28 04:45:54;;;;;;;1.85;1.65;;;;;;;14.38;57.72;98391.44;4492892;31;34919;-69
2023/10/28 04:48:22;;;;;;;2.03;0.85;;;;;;;14.45;57.41;98393.31;4492412;31;33122;-70
2023/10/28 04:50:50;;;;;;;0.47;0.47;;;;;;;14.13;58.06;98380.75;4485029;31;33832;-70
2023/10/28 04:53:17;;;;;;;1.60;0.68;;;;;;;13.87;58.79;98396.25;4482304;32;34310;-69
2023/10/28 04:55:46;;;;;;;1.83;1.25;;;;;;;13.80;58.89;98387.16;4493952;31;33810;-69
2023/10/28 04:58:14;;;;;;;2.20;0.88;;;;;;;13.52;59.60;98388.34;4485008;31;33359;-69
2023/10/28 05:00:42;;;;;;;0.62;0.50;;;;;;;13.32;60.36;98394.16;4469947;31;33537;-70
2023/10/28 05:03:10;;;;;;;2.28;1.15;;;;;;;13.22;60.58;98391.59;4480785;31;33525;-69
2023/10/28 05:05:38;;;;;;;0.43;0.43;;;;;;;13.35;60.23;98388.47;4478283;31;33603;-70
2023/10/28 05:08:07;;;;;;;1.02;0.57;;;;;;;13.26;60.31;98399.22;4471379;31;33578;-69
2023/10/28 05:10:34;;;;;;;1.65;1.12;;;;;;;13.03;61.10;98398.09;4484694;32;34533;-69
2023/10/28 05:13:03;;;;;;;1.75;1.00;;;;;;;12.51;62.92;98403.56;4485255;31;34969;-70
2023/10/28 05:15:30;;;;;;;1.30;0.82;;;;;;;12.86;61.61;98407.09;4472602;31;33864;-70
2023/10/28 05:17:58;;;;;;;0.75;0.65;;;;;;;12.63;62.17;98407.66;4490594;31;34525;-72
2023/10/28 05:20:25;;;;;;;1.25;1.05;;;;;;;12.87;61.45;98419.50;4495948;31;34640;-71
2023/10/28 05:22:53;;;;;;;2.08;1.33;;;;;;;13.05;60.81;98418.41;4489144;31;34504;-72
2023/10/28 05:25:21;;;;;;;5.57;0.95;;;;;;;13.09;60.80;98424.28;4487092;31;33575;-71
2023/10/28 05:27:50;;;;;;;0.90;0.60;;;;;;;13.14;60.65;98424.66;4491084;31;33214;-74
2023/10/28 05:30:18;;;;;;;0.43;0.43;;;;;;;13.24;60.22;98424.53;4485028;31;34943;-73
2023/10/28 05:32:46;;;;;;;0.93;0.60;;;;;;;13.26;60.18;98433.31;4475915;32;35062;-71
2023/10/28 05:35:14;;;;;;;1.00;0.88;;;;;;;13.12;60.70;98432.03;4481786;31;33821;-70
2023/10/28 05:37:41;;;;;;;1.00;0.60;;;;;;;12.83;61.31;98441.31;4472641;31;32719;-71
2023/10/28 05:40:13;;;;;;;3.92;2.35;;;;;;;12.84;61.96;98458.28;4473529;32;33765;-70
2023/10/28 05:42:41;;;;;;;0.82;0.82;;;;;;;13.14;61.30;98461.44;4480149;32;35066;-70
2023/10/28 05:45:10;;;;;;;0.75;0.75;;;;;;;13.22;60.85;98474.88;4485123;31;34406;-69
2023/10/28 05:47:37;;;;;;;3.10;0.80;;;;;;;12.88;62.19;98474.91;4492845;31;32949;-69
2023/10/28 05:50:06;;;;;;;0.82;0.70;;;;;;;13.30;61.67;98482.19;4497313;31;33930;-71
2023/10/28 05:52:38;;;;;;;1.12;0.93;;;;;;;13.48;61.76;98488.25;4484287;31;33663;-74
2023/10/28 05:55:12;;;;;;;0.70;0.57;;;;;;;13.59;61.41;98495.19;4479212;31;33654;-68
2023/10/28 05:57:40;;;;;;;1.92;1.20;;;;;;;13.74;61.74;98494.41;4484025;31;33193;-69
2023/10/28 06:00:10;;;;;;;1.23;1.08;;;;;;;13.91;61.86;98499.78;4492807;31;35121;-68
2023/10/28 06:02:38;;;;;;;2.28;1.42;;;;;;;13.95;62.02;98498.44;4486496;31;34346;-69
2023/10/28 06:05:06;;;;;;;3.53;1.58;;;;;;;13.95;62.86;98504.66;4478381;31;34992;-68
2023/10/28 06:07:34;;;;;;;2.50;1.02;;;;;;;14.23;62.08;98511.59;4478251;31;33181;-69
2023/10/28 06:10:02;;;;;;;1.92;1.12;;;;;;;14.41;62.12;98514.94;4480037;31;34754;-67
2023/10/28 06:12:29;;;;;;;3.10;1.50;;;;;;;14.52;62.00;98511.94;4479795;31;33806;-68
2023/10/28 06:14:57;;;;;;;3.30;1.70;;;;;;;14.47;62.93;98513.44;4484362;31;33742;-68
2023/10/28 06:17:24;;;;;;;2.17;1.52;;;;;;;14.60;63.08;98509.22;4480942;31;34102;-67
2023/10/28 06:19:52;;;;;;;1.00;0.95;;;;;;;14.80;62.62;98517.81;4485428;31;34647;-69
2023/10/28 06:22:20;;;;;;;2.00;1.42;;;;;;;14.86;62.64;98519.81;4473603;31;33956;-69
2023/10/28 06:24:49;;;;;;;2.67;1.42;;;;;;;14.97;62.49;98532.06;4476776;31;33446;-68
2023/10/28 06:27:16;;;;;;;3.50;1.58;;;;;;;14.99;62.52;98524.66;4485647;31;34019;-68
2023/10/28 06:29:44;;;;;;;3.40;1.85;;;;;;;15.07;62.09;98530.00;4476879;31;34999;-69
2023/10/28 06:32:12;;;;;;;3.28;1.87;;;;;;;15.21;61.65;98530.31;4478509;31;34390;-67
2023/10/28 06:34:40;;;;;;;2.22;2.00;;;;;;;15.21;61.35;98520.34;4482225;31;33474;-67
2023/10/28 06:37:07;;;;;;;2.28;1.73;;;;;;;15.31;60.61;98529.09;4490158;31;33435;-67
2023/10/28 06:39:35;;;;;;;2.87;1.83;;;;;;;15.24;60.33;98529.97;4481248;31;32021;-68
2023/10/28 06:42:04;;;;;;;2.72;2.00;;;;;;;15.37;59.90;98532.94;4482325;31;34802;-68
2023/10/28 06:44:32;;;;;;;16.37;2.47;;;;;;;15.45;59.51;98535.63;4490990;31;33684;-68
2023/10/28 06:47:00;;;;;;;2.87;1.83;;;;;;;15.38;59.81;98548.94;4491405;31;34368;-68
2023/10/28 06:49:28;;;;;;;1.52;1.25;;;;;;;15.42;60.12;98552.13;4485500;31;33567;-68
2023/10/28 06:51:55;;;;;;;2.22;1.35;;;;;;;15.58;59.47;98551.22;4485297;31;34950;-67
2023/10/28 06:54:24;;;;;;;6.97;2.28;;;;;;;15.57;59.83;98553.09;4484431;31;32631;-67
2023/10/28 06:56:51;;;;;;;1.08;0.98;;;;;;;15.72;59.65;98555.06;4476145;31;33255;-67
2023/10/28 06:59:19;;;;;;;3.80;2.17;;;;;;;15.60;60.40;98557.28;4479751;31;34445;-68
2023/10/28 07:01:47;;;;;;;2.30;1.75;;;;;;;15.47;60.66;98555.13;4479128;31;34998;-67
2023/10/28 07:04:15;;;;;;;3.40;1.70;;;;;;;15.70;60.01;98557.12;4473909;31;35092;-68
2023/10/28 07:06:45;;;;;;;2.83;1.60;;;;;;;15.82;60.15;98563.78;4477120;31;34158;-67
2023/10/28 07:09:15;;;;;;;6.05;4.20;;;;;;;15.43;62.60;98569.16;4477828;31;33750;-68
2023/10/28 07:11:43;;;;;;;6.28;3.28;;;;;;;15.53;62.52;98569.78;4484487;31;35165;-68
2023/10/28 07:14:10;;;;;;;2.83;1.65;;;;;;;15.77;61.57;98572.41;4480395;31;33840;-68
2023/10/28 07:16:38;;;;;;;10.90;2.42;;;;;;;15.78;61.70;98584.03;4477403;31;33310;-69
2023/10/28 07:19:06;;;;;;;6.68;2.12;;;;;;;15.83;61.56;98593.28;4484161;31;33789;-68
2023/10/28 07:21:33;;;;;;;4.53;2.50;;;;;;;15.95;61.38;98599.13;4479663;31;35279;-67
2023/10/28 07:24:03;;;;;;;12.95;2.78;;;;;;;16.02;61.25;98602.81;4490853;31;33472;-68
2023/10/28 07:26:30;;;;;;;3.17;1.85;;;;;;;15.98;61.58;98617.66;4482411;31;33432;-69
2023/10/28 07:28:58;;;;;;;1.95;1.25;;;;;;;15.96;61.59;98635.06;4477285;31;34097;-71
2023/10/28 07:31:26;;;;;;;2.70;1.55;;;;;;;15.89;62.00;98631.34;4483754;31;33830;-70
2023/10/28 07:33:56;;;;;;;3.35;1.48;;;;;;;16.00;62.19;98636.37;4487167;31;33382;-70
2023/10/28 07:36:23;;;;;;;4.87;2.20;;;;;;;16.15;62.28;98636.47;4493731;31;34189;-68
2023/10/28 07:38:51;;;;;;;3.97;2.42;;;;;;;16.35;62.25;98635.00;4480725;31;34788;-69
2023/10/28 07:41:19;;;;;;;4.87;2.37;;;;;;;16.47;62.28;98627.34;4467201;32;33724;-68
2023/10/28 07:43:47;;;;;;;3.20;1.55;;;;;;;16.69;61.87;98615.69;4466656;32;35238;-69
2023/10/28 07:46:16;;;;;;;3.85;1.87;;;;;;;16.85;62.06;98625.53;4474586;31;34463;-68
2023/10/28 07:48:44;;;;;;;4.37;1.92;;;;;;;17.06;61.81;98614.03;4483615;31;33921;-67
2023/10/28 07:51:16;;;;;;;3.30;1.92;;;;;;;17.22;61.57;98605.75;4480614;31;35296;-68
2023/10/28 07:53:46;;;;;;;4.37;1.52;;;;;;;17.38;61.04;98607.44;4476078;31;33885;-68
2023/10/28 07:56:14;;;;;;;3.30;1.58;;;;;;;17.52;60.54;98616.59;4486296;31;32939;-69
2023/10/28 07:58:46;;;;;;;3.92;1.65;;;;;;;17.59;59.95;98624.78;4485998;31;35041;-68
2023/10/28 08:01:15;;;;;;;4.75;2.30;;;;;;;17.58;59.10;98625.81;4481275;31;34331;-69
2023/10/28 08:03:45;;;;;;;8.38;2.12;;;;;;;17.73;58.66;98626.66;4489863;31;33417;-71
2023/10/28 08:06:13;;;;;;;5.78;2.65;;;;;;;17.85;58.40;98629.78;4485580;31;34158;-69
2023/10/28 08:09:01;;;;;;;4.03;2.12;;;;;;;17.92;57.99;98638.81;4486697;31;33504;-70
2023/10/28 08:11:30;;;;;;;2.45;1.52;;;;;;;17.90;57.96;98635.44;4481837;31;35352;-70
2023/10/28 08:13:58;;;;;;;2.72;1.70;;;;;;;17.98;57.68;98643.47;4478395;31;32917;-70
2023/10/28 08:16:26;;;;;;;3.97;1.75;;;;;;;18.05;57.79;98638.16;4481967;31;34206;-69
2023/10/28 08:18:54;;;;;;;3.78;2.03;;;;;;;18.05;58.02;98643.56;4481937;31;32727;-69
2023/10/28 08:21:22;;;;;;;3.35;1.62;;;;;;;18.01;58.21;98645.81;4482480;32;34296;-69
2023/10/28 08:23:50;;;;;;;3.17;1.77;;;;;;;18.14;57.90;98648.69;4474765;31;33776;-67
2023/10/28 08:26:18;;;;;;;3.00;1.48;;;;;;;18.16;58.03;98652.00;4474269;31;33843;-69
2023/10/28 08:28:52;;;;;;;3.62;1.80;;;;;;;18.20;58.06;98660.59;4481013;31;33579;-68
2023/10/28 08:31:20;;;;;;;3.73;1.43;;;;;;;18.13;57.75;98659.69;4482718;31;33723;-68
2023/10/28 08:33:50;;;;;;;4.37;2.17;;;;;;;18.12;57.95;98666.97;4471925;31;33462;-68
2023/10/28 08:36:18;;;;;;;3.40;1.65;;;;;;;18.18;58.04;98672.66;4478814;31;33196;-69
2023/10/28 08:38:47;;;;;;;2.83;1.58;;;;;;;18.10;58.12;98670.88;4482967;31;33854;-68
2023/10/28 08:41:21;;;;;;;2.58;1.27;;;;;;;18.31;57.47;98679.06;4478826;31;34360;-68
2023/10/28 08:43:51;;;;;;;2.45;1.30;;;;;;;18.27;56.94;98680.50;4483795;31;34040;-69
2023/10/28 08:46:21;;;;;;;2.95;1.77;;;;;;;18.28;57.00;98684.88;4486946;31;32936;-68
2023/10/28 08:48:49;;;;;;;4.50;1.35;;;;;;;18.36;57.24;98689.31;4485602;31;33635;-70
2023/10/28 08:51:21;;;;;;;1.55;1.02;;;;;;;18.35;57.48;98693.91;4480935;31;33962;-69
2023/10/28 08:53:50;;;;;;;1.52;1.08;;;;;;;18.41;57.11;98695.03;4491557;31;34612;-69
2023/10/28 08:56:18;;;;;;;2.47;1.48;;;;;;;18.45;56.92;98696.31;4453531;32;32744;-70
2023/10/28 08:58:50;;;;;;;3.20;1.70;;;;;;;18.35;56.77;98701.19;4441670;32;34514;-69
2023/10/28 09:01:19;;;;;;;0.45;0.45;;;;;;;18.39;56.90;98697.06;4450050;32;33667;-69
2023/10/28 09:03:47;;;;;;;2.75;1.50;;;;;;;18.33;57.27;98706.81;4454608;32;32184;-69
2023/10/28 09:06:16;;;;;;;3.72;1.27;;;;;;;18.36;57.19;98703.75;4456001;32;33179;-69
2023/10/28 09:08:43;;;;;;;2.25;1.25;;;;;;;18.49;57.29;98707.59;4452390;32;33748;-69
2023/10/28 09:11:11;;;;;;;1.70;1.08;;;;;;;18.53;57.45;98714.34;4452629;32;33702;-69
2023/10/28 09:13:45;;;;;;;2.45;1.08;;;;;;;18.60;57.28;98721.50;4450139;32;33525;-68
2023/10/28 09:16:14;;;;;;;2.20;1.10;;;;;;;18.61;56.86;98720.47;4456847;32;33207;-67
2023/10/28 09:18:43;;;;;;;1.48;0.82;;;;;;;18.60;57.20;98723.38;4454305;32;33587;-71
2023/10/28 09:21:11;;;;;;;0.85;0.68;;;;;;;18.65;57.17;98725.50;4449076;32;35077;-70
2023/10/28 09:23:43;;;;;;;1.17;0.88;;;;;;;18.60;57.44;98720.69;4449972;32;33713;-69
2023/10/28 09:26:11;;;;;;;2.80;0.85;;;;;;;18.61;57.09;98717.75;4454191;32;34452;-68
2023/10/28 09:28:45;;;;;;;2.65;1.15;;;;;;;18.65;56.52;98720.09;4477380;31;33739;-69
2023/10/28 09:31:23;;;;;;;1.60;0.77;;;;;;;18.66;56.48;98721.78;4485744;31;35315;-69
2023/10/28 09:33:51;;;;;;;3.62;0.52;;;;;;;18.71;55.68;98722.88;4482266;31;33443;-69
2023/10/28 09:36:19;;;;;;;0.40;0.40;;;;;;;18.77;55.40;98724.84;4471550;31;34411;-69
2023/10/28 09:38:47;;;;;;;0.30;0.30;;;;;;;18.85;55.44;98721.19;4486137;31;33491;-68
2023/10/28 09:41:18;;;;;;;1.55;0.90;;;;;;;18.67;55.38;98731.59;4483357;31;34668;-67
2023/10/28 09:43:46;;;;;;;0.70;0.47;;;;;;;18.88;54.86;98730.81;4482351;31;33755;-68
2023/10/28 09:46:19;;;;;;;0.30;0.30;;;;;;;18.94;54.68;98730.03;4492751;31;33019;-67
2023/10/28 09:48:48;;;;;;;1.77;0.90;;;;;;;18.99;54.78;98728.41;4474728;31;33484;-68
2023/10/28 09:51:20;;;;;;;0.32;0.30;;;;;;;18.97;53.40;98733.22;4477514;31;33626;-68
2023/10/28 09:54:02;;;;;;;0.32;0.30;;;;;;;18.82;53.97;98727.00;4492538;31;34069;-68
2023/10/28 09:56:34;;;;;;;0.88;0.47;;;;;;;19.01;53.19;98725.53;4490643;31;33197;-68
2023/10/28 09:59:13;;;;;;;1.02;0.50;;;;;;;18.99;53.87;98723.00;4483184;31;33891;-68
2023/10/28 10:01:49;;;;;;;0.37;0.37;;;;;;;18.91;54.30;98719.56;4470496;31;34158;-67
2023/10/28 10:04:31;;;;;;;0.77;0.55;;;;;;;18.77;54.35;98724.00;4473925;31;34504;-66
2023/10/28 10:06:59;;;;;;;1.87;0.77;;;;;;;19.00;53.68;98719.25;4485087;31;31914;-65
2023/10/28 10:09:27;;;;;;;1.12;0.43;;;;;;;19.16;53.18;98723.56;4478989;31;33811;-66
2023/10/28 10:11:57;;;;;;;1.40;0.70;;;;;;;19.25;52.83;98725.09;4484551;31;33591;-67
2023/10/28 10:14:27;;;;;;;1.05;0.75;;;;;;;19.27;52.86;98719.50;4491766;31;33589;-68
2023/10/28 10:16:59;;;;;;;0.73;0.45;;;;;;;19.31;52.77;98720.78;4450822;32;33150;-66
2023/10/28 10:19:33;;;;;;;1.33;0.77;;;;;;;19.39;52.43;98723.38;4451708;32;33572;-67
2023/10/28 10:22:07;;;;;;;0.45;0.35;;;;;;;19.43;52.33;98719.22;4458215;32;33814;-67
2023/10/28 10:24:35;;;;;;;0.62;0.52;;;;;;;19.50;52.23;98724.69;4457918;32;34044;-68
2023/10/28 10:27:03;;;;;;;0.35;0.35;;;;;;;19.35;52.07;98716.62;4457065;32;33485;-67
2023/10/28 10:29:41;;;;;;;0.43;0.30;;;;;;;19.35;51.09;98713.91;4453406;32;33635;-70
2023/10/28 10:32:16;;;;;;;0.95;0.68;;;;;;;19.02;50.98;98716.34;4449426;32;33626;-67
2023/10/28 10:34:50;;;;;;;0.40;0.40;;;;;;;19.22;50.83;98701.09;4456667;32;34971;-67
2023/10/28 10:37:22;;;;;;;0.60;0.50;;;;;;;19.41;51.19;98709.59;4457914;32;34034;-68
2023/10/28 10:39:50;;;;;;;0.55;0.30;;;;;;;19.54;51.59;98715.13;4460331;32;33240;-68
2023/10/28 10:42:19;;;;;;;1.27;0.55;;;;;;;19.46;51.21;98716.12;4456820;32;34152;-68
2023/10/28 10:44:47;;;;;;;0.98;0.50;;;;;;;19.07;50.81;98722.03;4456223;32;34677;-67
2023/10/28 10:47:17;;;;;;;0.68;0.35;;;;;;;19.27;50.55;98728.47;4455350;32;32897;-67
2023/10/28 10:49:48;;;;;;;0.80;0.40;;;;;;;19.37;50.75;98722.72;4475653;32;33921;-67
2023/10/28 10:52:18;;;;;;;0.30;0.30;;;;;;;19.60;50.08;98724.34;4480138;31;33985;-67
2023/10/28 10:54:46;;;;;;;0.45;0.40;;;;;;;19.62;50.60;98720.41;4484665;31;33744;-67
2023/10/28 10:57:14;;;;;;;1.15;0.40;;;;;;;19.72;49.92;98720.09;4486392;31;33925;-68
2023/10/28 10:59:41;;;;;;;1.65;0.62;;;;;;;19.63;50.83;98721.25;4488212;31;33576;-68
2023/10/28 11:02:10;;;;;;;0.93;0.50;;;;;;;19.68;50.16;98716.94;4471247;31;33819;-69
2023/10/28 11:04:41;;;;;;;0.75;0.50;;;;;;;19.69;49.63;98715.91;4487850;31;34923;-69
2023/10/28 11:07:09;;;;;;;1.02;0.85;;;;;;;19.70;49.60;98714.84;4484494;31;33022;-68
2023/10/28 11:09:38;;;;;;;0.20;0.20;;;;;;;19.65;49.98;98724.66;4494235;31;33530;-68
2023/10/28 11:12:05;;;;;;;0.60;0.47;;;;;;;19.75;49.78;98722.41;4473962;31;35045;-68
2023/10/28 11:14:33;;;;;;;1.08;0.37;;;;;;;19.42;50.30;98714.84;4470941;31;33700;-67
2023/10/28 11:17:01;;;;;;;0.88;0.57;;;;;;;19.73;48.78;98709.03;4483742;31;33221;-69
2023/10/28 11:19:29;;;;;;;0.95;0.40;;;;;;;19.89;49.69;98696.19;4464749;32;33875;-67
2023/10/28 11:21:57;;;;;;;0.77;0.52;;;;;;;19.84;49.23;98698.66;4457967;32;33918;-69
2023/10/28 11:24:24;;;;;;;0.47;0.47;;;;;;;19.69;49.87;98701.50;4454266;32;34907;-68
2023/10/28 11:26:55;;;;;;;0.70;0.43;;;;;;;19.45;49.99;98702.72;4461172;32;33185;-69
2023/10/28 11:29:23;;;;;;;0.30;0.22;;;;;;;19.64;48.52;98699.34;4470058;32;33413;-68
2023/10/28 11:31:50;;;;;;;0.40;0.40;;;;;;;19.85;48.43;98708.47;4464824;32;33832;-66
2023/10/28 11:34:18;;;;;;;1.62;0.57;;;;;;;20.14;47.54;98699.25;4462854;32;33676;-67
2023/10/28 11:36:45;;;;;;;0.50;0.50;;;;;;;19.96;48.32;98700.59;4459900;32;33116;-70
2023/10/28 11:39:15;;;;;;;0.62;0.50;;;;;;;19.73;48.20;98700.88;4468808;32;33627;-70
2023/10/28 11:41:44;;;;;;;0.50;0.35;;;;;;;19.91;47.71;98699.53;4467290;32;34786;-70